Time;durP1;ratioP1;P1;durP2;ratioP2;P2;SDS_P1;SDS_P2;PMS_P1;PMS_P2;Temp;Humidity;BMP_temperature;BMP_pressure;BME280_temperature;BME280_humidity;BME280_pressure;Samples;Min_cycle;Max_cycle;Signal;HPM_P1;HPM_P2
2023/05/13 03:01:29;;;;;;;;;;;20.20;61.70;;;;;;5512135;23;45564;-82
2023/05/13 03:03:54;;;;;;;;;;;20.20;61.90;;;;;;4926979;28;45016;-82
2023/05/13 03:06:20;;;;;;;;;;;20.40;62.00;;;;;;4907767;28;44928;-81
2023/05/13 03:08:45;;;;;;;;;;;20.40;62.00;;;;;;4942349;28;46713;-81
2023/05/13 03:11:11;;;;;;;;;;;20.20;61.80;;;;;;4925396;28;45170;-82
2023/05/13 03:13:36;;;;;;;;;;;20.10;61.80;;;;;;4916584;28;45042;-83
2023/05/13 03:16:02;;;;;;;;;;;20.00;61.80;;;;;;4908610;28;45102;-83
2023/05/13 03:18:30;;;;;;;;;;;20.20;61.80;;;;;;4932404;28;45202;-81
2023/05/13 03:20:55;;;;;;;;;;;20.10;61.70;;;;;;4914103;28;45866;-82
2023/05/13 03:23:21;;;;;;;;;;;20.10;61.80;;;;;;4913419;28;45575;-82
2023/05/13 03:25:46;;;;;;;;;;;20.20;61.90;;;;;;4916224;28;45237;-83
2023/05/13 03:28:12;;;;;;;;;;;20.10;61.80;;;;;;4900950;28;47213;-83
2023/05/13 03:30:37;;;;;;;;;;;20.30;61.90;;;;;;4910185;28;45255;-82
2023/05/13 03:33:03;;;;;;;;;;;20.10;61.80;;;;;;4904003;28;44650;-81
2023/05/13 03:35:28;;;;;;;;;;;20.10;61.80;;;;;;4902355;28;45449;-79
2023/05/13 03:37:54;;;;;;;;;;;20.10;61.80;;;;;;4902652;28;47078;-80
2023/05/13 03:40:19;;;;;;;;;;;20.20;61.80;;;;;;4919360;28;44690;-84
2023/05/13 03:42:45;;;;;;;;;;;20.10;61.80;;;;;;4920666;28;45280;-81
2023/05/13 03:45:10;;;;;;;;;;;20.10;61.80;;;;;;4913337;28;45501;-81
2023/05/13 03:47:38;;;;;;;;;;;20.30;61.90;;;;;;4909678;28;45583;-81
2023/05/13 03:50:04;;;;;;;;;;;20.20;61.90;;;;;;4907715;28;45004;-83
2023/05/13 03:52:29;;;;;;;;;;;20.10;61.90;;;;;;4911098;28;44832;-83
2023/05/13 03:54:55;;;;;;;;;;;20.20;62.00;;;;;;4922786;28;45533;-81
2023/05/13 03:57:20;;;;;;;;;;;20.20;62.00;;;;;;4905485;28;45321;-80
2023/05/13 03:59:46;;;;;;;;;;;20.10;61.90;;;;;;4913709;28;45264;-83
2023/05/13 04:02:11;;;;;;;;;;;20.20;62.00;;;;;;4905285;28;45337;-83
2023/05/13 04:04:37;;;;;;;;;;;20.10;61.90;;;;;;4918321;28;45516;-83
2023/05/13 04:07:02;;;;;;;;;;;20.20;62.00;;;;;;4911031;28;46851;-80
2023/05/13 04:09:28;;;;;;;;;;;20.10;61.90;;;;;;4935326;28;44654;-83
2023/05/13 04:11:53;;;;;;;;;;;20.00;61.80;;;;;;4897740;28;45317;-81
2023/05/13 04:14:19;;;;;;;;;;;20.10;62.00;;;;;;4907987;28;44989;-81
2023/05/13 04:16:45;;;;;;;;;;;20.20;62.00;;;;;;4907105;28;47149;-81
2023/05/13 04:19:10;;;;;;;;;;;20.00;62.00;;;;;;4913406;28;45201;-81
2023/05/13 04:21:36;;;;;;;;;;;20.20;62.20;;;;;;4929846;28;45585;-84
2023/05/13 04:24:01;;;;;;;;;;;20.10;62.00;;;;;;4937198;28;45012;-84
2023/05/13 04:26:27;;;;;;;;;;;20.10;62.10;;;;;;4926265;28;45575;-85
2023/05/13 04:28:52;;;;;;;;;;;20.10;62.10;;;;;;4914340;28;44915;-80
2023/05/13 04:31:18;;;;;;;;;;;20.00;62.10;;;;;;4928910;28;44702;-85
2023/05/13 04:33:44;;;;;;;;;;;20.10;62.10;;;;;;4923147;28;45502;-83
2023/05/13 04:36:09;;;;;;;;;;;20.10;62.10;;;;;;4925942;28;45171;-81
2023/05/13 04:38:38;;;;;;;;;;;20.00;62.20;;;;;;4910932;28;45519;-80
2023/05/13 04:41:03;;;;;;;;;;;20.00;62.10;;;;;;4913000;28;45214;-81
2023/05/13 04:43:29;;;;;;;;;;;20.00;62.10;;;;;;4924324;28;45761;-83
2023/05/13 04:45:54;;;;;;;;;;;20.00;62.20;;;;;;4927172;28;46744;-83
2023/05/13 04:48:20;;;;;;;;;;;20.10;62.30;;;;;;4917206;28;45342;-83
2023/05/13 04:50:45;;;;;;;;;;;19.90;62.20;;;;;;4914458;28;45828;-83
2023/05/13 04:53:11;;;;;;;;;;;20.10;62.30;;;;;;4905075;28;45185;-83
2023/05/13 04:55:36;;;;;;;;;;;20.20;62.40;;;;;;4908667;28;47003;-83
2023/05/13 04:58:02;;;;;;;;;;;20.10;62.30;;;;;;4918269;28;45132;-81
2023/05/13 05:02:55;;;;;;;;;;;20.00;62.20;;;;;;4952025;28;47185;-58
2023/05/13 05:05:21;;;;;;;;;;;20.00;62.10;;;;;;4952242;28;45562;-59
2023/05/13 05:07:46;;;;;;;;;;;20.00;62.10;;;;;;4960848;28;45165;-58
2023/05/13 05:10:13;;;;;;;;;;;20.00;62.10;;;;;;4956912;28;45517;-59
2023/05/13 05:12:39;;;;;;;;;;;20.00;62.40;;;;;;4928114;28;46642;-58
2023/05/13 05:15:05;;;;;;;;;;;20.00;62.20;;;;;;4944374;28;46134;-63
2023/05/13 05:17:32;;;;;;;;;;;20.00;62.20;;;;;;4903895;28;45625;-61
2023/05/13 05:19:58;;;;;;;;;;;20.00;62.20;;;;;;4924268;28;45380;-59
2023/05/13 05:22:24;;;;;;;;;;;20.00;62.00;;;;;;4938624;28;45418;-60
2023/05/13 05:24:50;;;;;;;;;;;20.00;62.10;;;;;;4927483;28;45653;-61
2023/05/13 05:27:15;;;;;;;;;;;20.00;62.10;;;;;;4922401;28;45657;-61
2023/05/13 05:29:41;;;;;;;;;;;20.00;62.10;;;;;;4935585;28;45485;-63
2023/05/13 05:32:06;;;;;;;;;;;20.00;62.20;;;;;;4914073;28;45833;-60
2023/05/13 05:34:32;;;;;;;;;;;19.90;62.10;;;;;;4944318;28;45241;-60
2023/05/13 05:36:57;;;;;;;;;;;19.90;62.20;;;;;;4905052;28;45815;-59
2023/05/13 05:39:23;;;;;;;;;;;19.90;62.20;;;;;;4903419;28;45395;-61
2023/05/13 05:41:48;;;;;;;;;;;19.90;62.20;;;;;;4937817;28;45443;-59
2023/05/13 05:44:14;;;;;;;;;;;19.90;62.20;;;;;;4926883;28;45332;-62
2023/05/13 05:46:39;;;;;;;;;;;19.90;62.10;;;;;;4936024;28;45295;-60
2023/05/13 05:49:07;;;;;;;;;;;19.90;62.20;;;;;;4917667;28;45333;-58
2023/05/13 05:51:32;;;;;;;;;;;19.90;62.20;;;;;;4918268;28;45729;-59
2023/05/13 05:53:58;;;;;;;;;;;19.90;62.20;;;;;;4944714;28;47244;-63
2023/05/13 05:56:23;;;;;;;;;;;20.00;62.10;;;;;;4920122;28;44796;-60
2023/05/13 05:58:49;;;;;;;;;;;19.90;62.10;;;;;;4944227;28;45547;-62
2023/05/13 06:01:14;;;;;;;;;;;19.90;62.10;;;;;;4927613;28;45734;-62
2023/05/13 06:03:40;;;;;;;;;;;19.90;62.10;;;;;;4941549;28;45417;-58
2023/05/13 06:06:05;;;;;;;;;;;19.90;62.00;;;;;;4943897;28;45157;-60
2023/05/13 06:08:31;;;;;;;;;;;19.90;62.00;;;;;;4946452;28;45232;-59
2023/05/13 06:10:57;;;;;;;;;;;20.00;62.10;;;;;;4935414;28;46620;-60
2023/05/13 06:13:22;;;;;;;;;;;19.90;62.00;;;;;;4940206;28;45404;-61
2023/05/13 06:15:47;;;;;;;;;;;20.00;62.10;;;;;;4922797;28;45613;-61
2023/05/13 06:18:13;;;;;;;;;;;19.90;62.00;;;;;;4952884;28;45271;-59
2023/05/13 06:20:39;;;;;;;;;;;20.00;62.00;;;;;;4939771;28;45740;-59
2023/05/13 06:23:05;;;;;;;;;;;20.00;62.00;;;;;;4931237;28;45316;-61
2023/05/13 06:25:30;;;;;;;;;;;20.00;62.00;;;;;;4934985;28;44707;-60
2023/05/13 06:27:56;;;;;;;;;;;20.00;62.00;;;;;;4954589;28;46727;-60
2023/05/13 06:30:22;;;;;;;;;;;20.00;62.00;;;;;;4937676;28;45951;-58
2023/05/13 06:32:47;;;;;;;;;;;19.90;62.00;;;;;;4921648;28;45405;-58
2023/05/13 06:35:13;;;;;;;;;;;20.00;62.00;;;;;;4914512;28;45307;-62
2023/05/13 06:37:38;;;;;;;;;;;20.00;61.90;;;;;;4952689;28;45660;-61
2023/05/13 06:40:04;;;;;;;;;;;20.00;62.00;;;;;;4925300;28;45786;-62
2023/05/13 06:42:30;;;;;;;;;;;20.00;61.90;;;;;;4932774;28;45191;-60
2023/05/13 06:44:56;;;;;;;;;;;20.00;61.80;;;;;;4924265;28;45391;-60
2023/05/13 06:47:21;;;;;;;;;;;20.00;61.80;;;;;;4926542;28;45566;-59
2023/05/13 06:49:46;;;;;;;;;;;20.00;61.80;;;;;;4930471;28;45307;-59
2023/05/13 06:52:12;;;;;;;;;;;20.00;61.90;;;;;;4947362;28;45342;-61
2023/05/13 06:54:38;;;;;;;;;;;20.00;62.70;;;;;;4929397;28;45264;-61
2023/05/13 06:57:05;;;;;;;;;;;19.90;61.90;;;;;;4943374;28;44807;-59
2023/05/13 06:59:31;;;;;;;;;;;19.90;61.90;;;;;;4929411;28;45726;-58
2023/05/13 07:01:56;;;;;;;;;;;20.00;61.90;;;;;;4920895;28;45529;-61
2023/05/13 07:04:22;;;;;;;;;;;20.00;61.80;;;;;;4946434;28;45352;-60
2023/05/13 07:06:47;;;;;;;;;;;20.00;61.70;;;;;;4921581;28;45295;-61
2023/05/13 07:09:13;;;;;;;;;;;20.00;61.60;;;;;;4934844;28;45378;-60
2023/05/13 07:11:39;;;;;;;;;;;20.00;61.70;;;;;;4944687;28;46305;-58
2023/05/13 07:14:04;;;;;;;;;;;20.00;62.40;;;;;;4929501;28;45703;-60
2023/05/13 07:16:30;;;;;;;;;;;20.00;61.70;;;;;;4938023;28;45290;-61
2023/05/13 07:18:55;;;;;;;;;;;20.00;61.60;;;;;;4934375;28;45488;-59
2023/05/13 07:21:21;;;;;;;;;;;20.00;61.50;;;;;;4922384;28;46878;-61
2023/05/13 07:23:46;;;;;;;;;;;20.00;61.60;;;;;;4934348;28;45216;-61
2023/05/13 07:26:12;;;;;;;;;;;20.00;61.60;;;;;;4939871;28;46209;-59
2023/05/13 07:28:37;;;;;;;;;;;20.10;61.70;;;;;;4933059;28;46000;-62
2023/05/13 07:31:03;;;;;;;;;;;20.00;61.60;;;;;;4918502;28;45559;-61
2023/05/13 07:33:28;;;;;;;;;;;20.00;61.40;;;;;;4910571;28;45382;-61
2023/05/13 07:35:54;;;;;;;;;;;20.10;61.30;;;;;;4920690;28;45250;-59
2023/05/13 07:38:20;;;;;;;;;;;20.00;61.30;;;;;;4944530;28;45820;-62
2023/05/13 07:40:45;;;;;;;;;;;20.00;61.50;;;;;;4918725;28;46159;-62
2023/05/13 07:43:12;;;;;;;;;;;20.00;61.20;;;;;;4923984;28;45064;-61
2023/05/13 07:45:38;;;;;;;;;;;20.00;61.40;;;;;;4936049;28;46964;-62
2023/05/13 07:48:04;;;;;;;;;;;20.00;61.20;;;;;;4943135;28;45020;-60
2023/05/13 07:50:30;;;;;;;;;;;20.00;61.20;;;;;;4938141;28;45683;-60
2023/05/13 07:52:56;;;;;;;;;;;20.10;61.10;;;;;;4931251;28;45784;-61
2023/05/13 07:55:21;;;;;;;;;;;20.00;61.20;;;;;;4942987;28;45351;-60
2023/05/13 07:57:47;;;;;;;;;;;20.00;61.20;;;;;;4928063;28;45229;-63
2023/05/13 08:00:12;;;;;;;;;;;20.00;61.40;;;;;;4937397;28;45793;-60
2023/05/13 08:02:38;;;;;;;;;;;20.00;61.40;;;;;;4921997;28;45276;-62
2023/05/13 08:05:05;;;;;;;;;;;20.00;61.20;;;;;;4911518;28;45065;-63
2023/05/13 08:07:30;;;;;;;;;;;20.10;61.10;;;;;;4892882;28;45509;-61
2023/05/13 08:09:55;;;;;;;;;;;20.10;61.10;;;;;;4925091;28;45556;-59
2023/05/13 08:12:21;;;;;;;;;;;20.10;61.10;;;;;;4941347;28;45188;-60
2023/05/13 08:14:46;;;;;;;;;;;20.10;61.00;;;;;;4934611;28;45346;-63
2023/05/13 08:17:12;;;;;;;;;;;20.10;60.90;;;;;;4910420;28;45445;-62
2023/05/13 08:19:37;;;;;;;;;;;20.10;61.10;;;;;;4919763;28;46620;-61
2023/05/13 08:22:03;;;;;;;;;;;20.10;61.10;;;;;;4919703;28;45399;-61
2023/05/13 08:24:28;;;;;;;;;;;20.10;61.10;;;;;;4943478;28;44973;-62
2023/05/13 08:26:54;;;;;;;;;;;20.10;61.10;;;;;;4942965;28;45174;-60
2023/05/13 08:29:19;;;;;;;;;;;20.10;61.10;;;;;;4946950;28;45454;-59
2023/05/13 08:31:45;;;;;;;;;;;20.10;61.00;;;;;;4925068;28;45562;-61
2023/05/13 08:34:10;;;;;;;;;;;20.10;61.10;;;;;;4927578;28;45118;-62
2023/05/13 08:36:36;;;;;;;;;;;20.10;61.00;;;;;;4916144;28;45303;-61
2023/05/13 08:39:01;;;;;;;;;;;20.10;61.00;;;;;;4944158;28;48111;-60
2023/05/13 08:41:28;;;;;;;;;;;20.10;61.00;;;;;;4941105;28;45229;-61
2023/05/13 08:43:53;;;;;;;;;;;20.10;61.00;;;;;;4932847;28;46862;-62
2023/05/13 08:46:19;;;;;;;;;;;20.10;61.00;;;;;;4919125;28;45758;-58
2023/05/13 08:48:44;;;;;;;;;;;20.10;60.90;;;;;;4938223;28;46816;-60
2023/05/13 08:51:10;;;;;;;;;;;20.10;60.90;;;;;;4922752;28;44943;-61
2023/05/13 08:53:36;;;;;;;;;;;20.10;60.90;;;;;;4949516;28;45171;-59
2023/05/13 08:56:01;;;;;;;;;;;20.10;60.80;;;;;;4928853;28;45636;-61
2023/05/13 08:58:27;;;;;;;;;;;20.10;60.80;;;;;;4897777;28;47219;-61
2023/05/13 09:00:52;;;;;;;;;;;20.10;60.90;;;;;;4932841;28;45230;-61
2023/05/13 09:03:20;;;;;;;;;;;20.10;60.80;;;;;;4947745;28;45293;-60
2023/05/13 09:05:46;;;;;;;;;;;20.10;60.90;;;;;;4929467;28;46064;-62
2023/05/13 09:08:11;;;;;;;;;;;20.10;60.80;;;;;;4931805;28;45275;-59
2023/05/13 09:10:37;;;;;;;;;;;20.20;60.90;;;;;;4931890;28;45387;-62
2023/05/13 09:13:02;;;;;;;;;;;20.10;60.80;;;;;;4948236;28;46144;-59
2023/05/13 09:15:28;;;;;;;;;;;20.10;61.50;;;;;;4939283;28;45522;-61
2023/05/13 09:18:06;;;;;;;;;;;20.20;60.80;;;;;;4905876;28;46621;-58
2023/05/13 09:20:31;;;;;;;;;;;20.10;60.80;;;;;;4936348;28;45256;-58
2023/05/13 09:23:07;;;;;;;;;;;20.20;60.80;;;;;;4928577;28;45354;-58
2023/05/13 09:25:33;;;;;;;;;;;20.10;60.80;;;;;;4929165;28;45554;-59
2023/05/13 09:27:59;;;;;;;;;;;20.20;60.70;;;;;;4923780;28;46726;-59
2023/05/13 09:30:26;;;;;;;;;;;20.20;60.90;;;;;;4938748;28;45698;-61
2023/05/13 09:33:03;;;;;;;;;;;20.20;60.80;;;;;;4941101;28;45373;-62
2023/05/13 09:35:30;;;;;;;;;;;20.10;60.70;;;;;;4937844;28;45223;-60
2023/05/13 09:37:55;;;;;;;;;;;20.20;60.70;;;;;;4941926;28;45446;-61
2023/05/13 09:40:20;;;;;;;;;;;20.20;60.70;;;;;;4911409;28;45282;-60
2023/05/13 09:42:46;;;;;;;;;;;20.10;60.70;;;;;;4922791;28;45585;-62
2023/05/13 09:45:12;;;;;;;;;;;20.10;60.50;;;;;;4937181;28;45804;-60
2023/05/13 09:47:38;;;;;;;;;;;20.20;60.80;;;;;;4908015;28;45832;-62
2023/05/13 09:50:04;;;;;;;;;;;20.10;60.50;;;;;;4928642;28;45334;-61
2023/05/13 09:52:30;;;;;;;;;;;20.10;60.80;;;;;;4926847;28;45282;-61
2023/05/13 09:54:59;;;;;;;;;;;20.20;60.80;;;;;;4942362;28;45740;-60
2023/05/13 09:57:27;;;;;;;;;;;20.10;60.80;;;;;;4937855;28;45598;-60
2023/05/13 09:59:57;;;;;;;;;;;20.10;60.70;;;;;;4947066;28;45205;-62
2023/05/13 10:02:22;;;;;;;;;;;20.10;61.40;;;;;;4918307;28;45618;-61
2023/05/13 10:04:48;;;;;;;;;;;20.20;60.70;;;;;;4944051;28;45717;-60
2023/05/13 10:07:13;;;;;;;;;;;20.20;60.60;;;;;;4918978;28;45298;-60
2023/05/13 10:09:39;;;;;;;;;;;20.20;60.70;;;;;;4943203;28;45504;-61
2023/05/13 10:12:05;;;;;;;;;;;20.10;60.50;;;;;;4922364;28;45162;-60
2023/05/13 10:14:31;;;;;;;;;;;20.10;60.60;;;;;;4933561;28;46295;-61
2023/05/13 10:16:56;;;;;;;;;;;20.10;60.70;;;;;;4931595;28;45063;-59
2023/05/13 10:19:23;;;;;;;;;;;20.20;60.70;;;;;;4929374;28;45231;-61
2023/05/13 10:21:48;;;;;;;;;;;20.10;60.60;;;;;;4937597;28;46378;-62
2023/05/13 10:24:14;;;;;;;;;;;20.10;60.60;;;;;;4931674;28;45564;-60
2023/05/13 10:26:40;;;;;;;;;;;20.10;60.70;;;;;;4909447;28;46537;-59
2023/05/13 10:29:06;;;;;;;;;;;20.20;60.60;;;;;;4950116;28;45316;-62
2023/05/13 10:31:31;;;;;;;;;;;20.20;61.10;;;;;;4923665;28;45523;-60
2023/05/13 10:33:56;;;;;;;;;;;20.10;60.70;;;;;;4930759;28;45547;-61
2023/05/13 10:36:25;;;;;;;;;;;20.10;60.60;;;;;;4926254;28;47871;-60
2023/05/13 10:38:59;;;;;;;;;;;20.20;60.60;;;;;;4942545;28;44942;-62
2023/05/13 10:41:43;;;;;;;;;;;20.20;60.60;;;;;;4942483;28;45999;-62
2023/05/13 10:44:09;;;;;;;;;;;20.20;60.60;;;;;;4945618;28;45625;-61
2023/05/13 10:46:38;;;;;;;;;;;20.20;60.70;;;;;;4922250;28;45475;-60
2023/05/13 10:49:03;;;;;;;;;;;20.20;60.80;;;;;;4929045;28;45228;-59
2023/05/13 10:51:29;;;;;;;;;;;20.20;60.70;;;;;;4923017;28;45461;-60
2023/05/13 10:53:55;;;;;;;;;;;20.10;60.60;;;;;;4948222;28;45416;-59
2023/05/13 10:56:21;;;;;;;;;;;20.20;60.70;;;;;;4941362;28;45462;-59
2023/05/13 10:58:57;;;;;;;;;;;20.10;60.70;;;;;;4915116;28;45048;-59
2023/05/13 11:01:27;;;;;;;;;;;20.10;60.60;;;;;;4930494;28;47246;-59
2023/05/13 11:03:53;;;;;;;;;;;20.10;60.70;;;;;;4932262;28;44911;-59
2023/05/13 11:06:19;;;;;;;;;;;20.10;60.80;;;;;;4910477;28;46586;-59
2023/05/13 11:08:46;;;;;;;;;;;20.10;60.70;;;;;;4943620;28;45113;-62
2023/05/13 11:11:25;;;;;;;;;;;20.20;60.90;;;;;;4924277;28;45677;-59
2023/05/13 11:13:53;;;;;;;;;;;20.10;60.70;;;;;;4944545;28;45868;-59
2023/05/13 11:16:19;;;;;;;;;;;20.10;60.60;;;;;;4940243;28;45693;-60
2023/05/13 11:18:45;;;;;;;;;;;20.20;60.70;;;;;;4928394;28;44781;-60
2023/05/13 11:21:10;;;;;;;;;;;20.10;60.60;;;;;;4942455;28;45340;-60
2023/05/13 11:23:54;;;;;;;;;;;20.20;60.70;;;;;;4947127;28;45317;-59
2023/05/13 11:26:20;;;;;;;;;;;20.10;60.50;;;;;;4927910;28;46208;-60
2023/05/13 11:28:52;;;;;;;;;;;20.20;61.30;;;;;;4934272;28;45400;-61
2023/05/13 11:31:17;;;;;;;;;;;20.10;60.60;;;;;;4936572;28;45620;-59
2023/05/13 11:34:01;;;;;;;;;;;20.10;60.50;;;;;;4926365;28;45597;-59
2023/05/13 11:36:30;;;;;;;;;;;20.20;60.60;;;;;;4942569;28;46976;-60
2023/05/13 11:39:03;;;;;;;;;;;20.20;60.60;;;;;;4928573;28;45191;-59
2023/05/13 11:41:30;;;;;;;;;;;20.20;60.60;;;;;;4924341;28;45314;-59
2023/05/13 11:43:58;;;;;;;;;;;20.20;60.60;;;;;;4948134;28;45481;-59
2023/05/13 11:46:23;;;;;;;;;;;20.20;60.60;;;;;;4912665;28;45936;-59
2023/05/13 11:48:49;;;;;;;;;;;20.20;60.60;;;;;;4909807;28;46177;-58
2023/05/13 11:51:16;;;;;;;;;;;20.20;60.60;;;;;;4919863;28;45872;-61
2023/05/13 11:53:42;;;;;;;;;;;20.20;60.60;;;;;;4928050;28;45496;-58
2023/05/13 11:56:11;;;;;;;;;;;20.20;60.60;;;;;;4923043;28;45530;-58
2023/05/13 11:58:37;;;;;;;;;;;20.20;60.60;;;;;;4929046;28;45156;-60
2023/05/13 12:01:02;;;;;;;;;;;20.20;60.60;;;;;;4908782;28;45554;-61
2023/05/13 12:03:28;;;;;;;;;;;20.20;60.60;;;;;;4943259;28;45293;-58
2023/05/13 12:06:03;;;;;;;;;;;20.20;60.70;;;;;;4924732;28;47409;-57
2023/05/13 12:08:28;;;;;;;;;;;20.20;60.60;;;;;;4935869;28;45308;-60
2023/05/13 12:10:54;;;;;;;;;;;20.20;60.60;;;;;;4921518;28;45319;-61
2023/05/13 12:13:19;;;;;;;;;;;20.20;60.80;;;;;;4917250;28;45280;-60
2023/05/13 12:15:46;;;;;;;;;;;20.10;60.70;;;;;;4916748;28;46025;-60
2023/05/13 12:18:12;;;;;;;;;;;20.20;60.70;;;;;;4926964;28;45330;-59
2023/05/13 12:20:37;;;;;;;;;;;20.20;60.60;;;;;;4919567;28;46623;-59
2023/05/13 12:23:04;;;;;;;;;;;20.20;60.70;;;;;;4947211;28;45283;-60
2023/05/13 12:25:35;;;;;;;;;;;20.20;60.60;;;;;;4940710;28;46158;-58
2023/05/13 12:28:20;;;;;;;;;;;20.20;60.60;;;;;;4941500;28;45226;-60
2023/05/13 12:30:49;;;;;;;;;;;20.20;60.70;;;;;;4938247;28;45263;-59
2023/05/13 12:33:14;;;;;;;;;;;20.20;60.70;;;;;;4930646;28;45636;-59
2023/05/13 12:35:40;;;;;;;;;;;20.20;60.60;;;;;;4928131;28;45304;-60
2023/05/13 12:38:06;;;;;;;;;;;20.20;60.60;;;;;;4931864;28;45267;-60
2023/05/13 12:40:32;;;;;;;;;;;20.20;60.60;;;;;;4942165;28;46135;-60
2023/05/13 12:42:57;;;;;;;;;;;20.20;60.60;;;;;;4928461;28;45231;-59
2023/05/13 12:45:26;;;;;;;;;;;20.20;60.60;;;;;;4922923;28;46459;-61
2023/05/13 12:47:51;;;;;;;;;;;20.20;60.60;;;;;;4926300;28;45307;-58
2023/05/13 12:50:17;;;;;;;;;;;20.20;60.70;;;;;;4927371;28;45523;-59
2023/05/13 12:52:42;;;;;;;;;;;20.20;60.70;;;;;;4934495;28;45374;-60
2023/05/13 12:55:08;;;;;;;;;;;20.20;60.70;;;;;;4933171;28;45824;-60
2023/05/13 12:57:33;;;;;;;;;;;20.20;60.80;;;;;;4926561;28;46091;-58
2023/05/13 12:59:59;;;;;;;;;;;20.20;60.80;;;;;;4948253;28;45634;-59
2023/05/13 13:02:24;;;;;;;;;;;20.20;60.70;;;;;;4928475;28;47111;-61
2023/05/13 13:04:50;;;;;;;;;;;20.20;60.70;;;;;;4928068;28;45738;-59
2023/05/13 13:07:15;;;;;;;;;;;20.20;60.70;;;;;;4942179;28;45187;-60
2023/05/13 13:09:40;;;;;;;;;;;20.20;60.70;;;;;;4928734;28;44777;-59
2023/05/13 13:12:06;;;;;;;;;;;20.30;60.70;;;;;;4924310;28;46192;-61
2023/05/13 13:14:32;;;;;;;;;;;20.30;60.60;;;;;;4917436;28;46793;-59
2023/05/13 13:16:57;;;;;;;;;;;20.30;60.60;;;;;;4921180;28;45546;-60
2023/05/13 13:19:23;;;;;;;;;;;20.30;60.70;;;;;;4946199;28;45164;-59
2023/05/13 13:21:48;;;;;;;;;;;20.20;60.60;;;;;;4930786;28;46073;-60
2023/05/13 13:24:13;;;;;;;;;;;20.20;60.50;;;;;;4925410;28;45318;-60
2023/05/13 13:26:39;;;;;;;;;;;20.30;60.60;;;;;;4943294;28;45595;-60
2023/05/13 13:29:04;;;;;;;;;;;20.30;60.60;;;;;;4913539;28;45461;-59
2023/05/13 13:31:30;;;;;;;;;;;20.30;60.70;;;;;;4922524;28;45203;-59
2023/05/13 13:33:57;;;;;;;;;;;20.20;60.70;;;;;;4931923;28;47110;-60
2023/05/13 13:36:23;;;;;;;;;;;20.30;60.80;;;;;;4924500;28;44606;-60
2023/05/13 13:38:48;;;;;;;;;;;20.30;60.80;;;;;;4944032;28;45519;-60
2023/05/13 13:41:14;;;;;;;;;;;20.30;60.80;;;;;;4942357;28;45752;-61
2023/05/13 13:43:39;;;;;;;;;;;20.20;60.70;;;;;;4930251;28;45394;-60
2023/05/13 13:46:05;;;;;;;;;;;20.30;60.70;;;;;;4940448;28;45531;-59
2023/05/13 13:48:30;;;;;;;;;;;20.30;60.80;;;;;;4929625;28;44818;-58
2023/05/13 13:50:57;;;;;;;;;;;20.30;60.80;;;;;;4939054;28;45390;-60
2023/05/13 13:53:22;;;;;;;;;;;20.20;60.60;;;;;;4927962;28;45495;-60
2023/05/13 13:55:48;;;;;;;;;;;20.30;60.70;;;;;;4944132;28;45251;-58
2023/05/13 13:58:14;;;;;;;;;;;20.30;60.70;;;;;;4929414;28;46251;-57
2023/05/13 14:00:40;;;;;;;;;;;20.30;60.60;;;;;;4930675;28;45157;-61
2023/05/13 14:03:05;;;;;;;;;;;20.30;60.60;;;;;;4951511;28;46380;-57
2023/05/13 14:05:31;;;;;;;;;;;20.30;60.60;;;;;;4926048;28;45320;-59
2023/05/13 14:07:56;;;;;;;;;;;20.30;60.70;;;;;;4948407;28;45443;-59
2023/05/13 14:10:21;;;;;;;;;;;20.30;60.70;;;;;;4911481;28;46104;-58
2023/05/13 14:12:47;;;;;;;;;;;20.30;60.60;;;;;;4950683;28;45436;-58
2023/05/13 14:15:12;;;;;;;;;;;20.30;60.60;;;;;;4942078;28;45697;-60
2023/05/13 14:17:38;;;;;;;;;;;20.30;60.80;;;;;;4931973;28;46628;-60
2023/05/13 14:20:04;;;;;;;;;;;20.30;60.50;;;;;;4914131;28;45491;-58
2023/05/13 14:22:30;;;;;;;;;;;20.30;60.80;;;;;;4922268;28;48175;-61
2023/05/13 14:24:55;;;;;;;;;;;20.40;60.60;;;;;;4948545;28;45701;-58
2023/05/13 14:27:23;;;;;;;;;;;20.30;60.50;;;;;;4925107;28;45942;-59
2023/05/13 14:29:48;;;;;;;;;;;20.40;60.50;;;;;;4949975;28;45386;-58
2023/05/13 14:32:14;;;;;;;;;;;20.30;60.50;;;;;;4921788;28;46726;-57
2023/05/13 14:34:39;;;;;;;;;;;20.40;60.50;;;;;;4935415;28;45189;-57
2023/05/13 14:37:05;;;;;;;;;;;20.40;60.50;;;;;;4926067;28;45266;-59
2023/05/13 14:39:30;;;;;;;;;;;20.40;60.60;;;;;;4930078;28;44902;-59
2023/05/13 14:41:56;;;;;;;;;;;20.40;60.40;;;;;;4928559;28;48049;-57
2023/05/13 14:44:21;;;;;;;;;;;20.40;60.40;;;;;;4953001;28;45239;-57
2023/05/13 14:46:47;;;;;;;;;;;20.40;60.50;;;;;;4935232;28;45251;-56
2023/05/13 14:49:12;;;;;;;;;;;20.40;60.60;;;;;;4948360;28;45274;-58
2023/05/13 14:51:38;;;;;;;;;;;20.40;60.60;;;;;;4925204;28;45840;-60
2023/05/13 14:54:03;;;;;;;;;;;20.40;60.60;;;;;;4939365;28;46503;-59
2023/05/13 14:56:29;;;;;;;;;;;20.40;60.50;;;;;;4950329;28;46028;-60
2023/05/13 14:58:54;;;;;;;;;;;20.40;60.60;;;;;;4945935;28;45326;-60
2023/05/13 15:01:20;;;;;;;;;;;20.40;60.50;;;;;;4922154;28;47197;-58
2023/05/13 15:03:45;;;;;;;;;;;20.40;60.60;;;;;;4926734;28;46208;-61
2023/05/13 15:06:11;;;;;;;;;;;20.40;60.60;;;;;;4936126;28;45392;-60
2023/05/13 15:08:36;;;;;;;;;;;20.40;60.90;;;;;;4941045;28;45274;-57
2023/05/13 15:11:02;;;;;;;;;;;20.40;60.70;;;;;;4941826;28;45407;-59
2023/05/13 15:13:28;;;;;;;;;;;20.40;60.70;;;;;;4948971;28;44688;-60
2023/05/13 15:15:54;;;;;;;;;;;20.40;60.60;;;;;;4944102;28;45521;-58
2023/05/13 15:18:19;;;;;;;;;;;20.40;60.70;;;;;;4929163;28;46012;-58
2023/05/13 15:20:45;;;;;;;;;;;20.40;60.70;;;;;;4936442;28;45232;-60
2023/05/13 15:23:10;;;;;;;;;;;20.40;60.80;;;;;;4943654;28;46876;-59
2023/05/13 15:25:36;;;;;;;;;;;20.40;60.90;;;;;;4926545;28;45367;-58
2023/05/13 15:28:01;;;;;;;;;;;20.40;61.60;;;;;;4935118;28;45428;-60
2023/05/13 15:30:27;;;;;;;;;;;20.40;61.40;;;;;;4926403;28;45590;-62
2023/05/13 15:32:52;;;;;;;;;;;20.40;60.90;;;;;;4917873;28;44836;-58
2023/05/13 15:35:18;;;;;;;;;;;20.40;61.10;;;;;;4927980;28;45372;-62
2023/05/13 15:37:44;;;;;;;;;;;20.40;61.70;;;;;;4917114;28;45428;-61
2023/05/13 15:40:10;;;;;;;;;;;20.40;61.40;;;;;;4926778;28;46514;-61
2023/05/13 15:42:35;;;;;;;;;;;20.50;61.20;;;;;;4948306;28;45600;-59
2023/05/13 15:45:01;;;;;;;;;;;20.50;61.20;;;;;;4902018;28;45122;-60
2023/05/13 15:47:26;;;;;;;;;;;20.50;62.00;;;;;;4919849;28;45305;-60
2023/05/13 15:49:53;;;;;;;;;;;20.50;61.20;;;;;;4932240;28;46228;-59
2023/05/13 15:52:18;;;;;;;;;;;20.50;61.20;;;;;;4933214;28;45361;-61
2023/05/13 15:54:44;;;;;;;;;;;20.50;61.10;;;;;;4930352;28;45538;-60
2023/05/13 15:57:09;;;;;;;;;;;20.50;61.40;;;;;;4925063;28;45615;-60
2023/05/13 15:59:35;;;;;;;;;;;20.50;61.20;;;;;;4919301;28;46494;-61
2023/05/13 16:02:00;;;;;;;;;;;20.50;61.20;;;;;;4939214;28;45698;-61
2023/05/13 16:04:26;;;;;;;;;;;20.60;61.30;;;;;;4931901;28;45336;-59
2023/05/13 16:06:51;;;;;;;;;;;20.50;61.20;;;;;;4939768;28;45017;-60
2023/05/13 16:09:17;;;;;;;;;;;20.50;61.20;;;;;;4945440;28;45655;-59
2023/05/13 16:11:42;;;;;;;;;;;20.50;61.30;;;;;;4921152;28;45292;-59
2023/05/13 16:14:08;;;;;;;;;;;20.60;61.30;;;;;;4928006;28;45284;-59
2023/05/13 16:16:33;;;;;;;;;;;20.50;62.00;;;;;;4902660;28;45225;-59
2023/05/13 16:19:02;;;;;;;;;;;20.50;61.30;;;;;;4948127;28;45436;-60
2023/05/13 16:21:28;;;;;;;;;;;20.50;61.20;;;;;;4925044;28;44689;-59
2023/05/13 16:23:53;;;;;;;;;;;20.60;61.40;;;;;;4927292;28;45444;-59
2023/05/13 16:26:20;;;;;;;;;;;20.60;61.30;;;;;;4922882;28;45315;-58
2023/05/13 16:28:45;;;;;;;;;;;20.50;61.30;;;;;;4921119;28;46347;-60
2023/05/13 16:31:11;;;;;;;;;;;20.60;61.20;;;;;;4937415;28;44725;-56
2023/05/13 16:33:36;;;;;;;;;;;20.60;61.20;;;;;;4945914;28;45407;-59
2023/05/13 16:36:02;;;;;;;;;;;20.60;61.10;;;;;;4944614;28;45688;-60
2023/05/13 16:38:29;;;;;;;;;;;20.60;61.20;;;;;;4932898;28;46793;-56
2023/05/13 16:40:54;;;;;;;;;;;20.60;61.20;;;;;;4930209;28;45664;-59
2023/05/13 16:43:20;;;;;;;;;;;20.60;61.10;;;;;;4949100;28;45143;-59
2023/05/13 16:45:46;;;;;;;;;;;20.50;61.10;;;;;;4918632;28;45462;-60
2023/05/13 16:48:12;;;;;;;;;;;20.60;61.20;;;;;;4940126;28;47581;-59
2023/05/13 16:50:38;;;;;;;;;;;20.60;61.20;;;;;;4941425;28;45982;-58
2023/05/13 16:53:03;;;;;;;;;;;20.60;61.20;;;;;;4911794;28;45541;-59
2023/05/13 16:55:30;;;;;;;;;;;20.60;61.10;;;;;;4937254;28;45816;-58
2023/05/13 16:57:56;;;;;;;;;;;20.60;61.10;;;;;;4942143;28;47764;-61
2023/05/13 17:00:21;;;;;;;;;;;20.60;61.10;;;;;;4941029;28;45382;-59
2023/05/13 17:02:47;;;;;;;;;;;20.70;61.20;;;;;;4914146;28;45747;-58
2023/05/13 17:05:12;;;;;;;;;;;20.60;61.00;;;;;;4921682;28;45337;-61
2023/05/13 17:07:38;;;;;;;;;;;20.60;61.00;;;;;;4924071;28;45375;-57
2023/05/13 17:10:04;;;;;;;;;;;20.60;61.10;;;;;;4927603;28;45633;-62
2023/05/13 17:12:29;;;;;;;;;;;20.60;61.90;;;;;;4926893;28;44805;-56